La Belle, Missouri
Current Conditions -  °F | °C
As of 8:55 AM on Sunday 21 Dec 2014 (Local Time) from KIRK Reporting Station
Overcast Overcast  
Wind Chill: 34°   Ceiling: 1800
Heat Index: 40°   Visibility: 7mi
Dew Point: 36°   Wind: 9mph
Humidity: 86%   Direction: 170°S
Pressure: 30.07"   Gusts: NA
Location:  40.12°N, 91.91°W
Report Text: KIRK 211455Z AUTO 17008KT 7SM OVC018 04/02 A3007 RMK AO2 SLP193 T00440022 58012
Loading
Personal Weather Stations






























Interactive Weather Map New forecast layout! Learn more

10-Day Weather Forecast

Advertisements
Track Severe Weather on mobile